aviador You're here:

OIMB Decoded Metar

BIRJAND in IRAN
Report Time2017-12-11 05:00:00
UTC Time2017-12-11 05:30:13
Flight Rules vfr VFR
Wind120° at 04 kt
W.Decomp.*RWY 10: 3.8 kt HW 1.2 kt RCW
RWY 08: 3.2 kt HW 2.5 kt RCW
W.Rank120° ranks 2
Current wind is below 120° avg. (6.2)
Visibility9999 m
Phenomena:N/A
Clouds:N/A
Expected CloudBase > 7,200 ft AGL from Temp-Dew spread
CeilingNone
Temp00°C (ISA -5)
Dew Point-18°C (25% RH)
AAT-4.9°C
QNH1022 hPa
Density Alt3,980 ft
Elevation4,892 ft
Report Wrong Elevation
Raw Report
METAR OIMB 110500Z 12004KT CAVOK M00/M18 Q1022=

Extra information for OIMB:More info

Metar Taf Metar & Taf Last 4 Metars F.Rules Stats Wind Profile Meteogram Temp Stats Airport Information Weather charts Add Link Nearby VenuesMetar ALERT Operation Metar Decoded Social comments